地図

経路データ

SID SEASON NUMBER BASIN SUBBASIN NAME ISO_TIME NATURE LAT LON WMO_WIND WMO_PRES WMO_AGENCY TRACK_TYPE DIST2LAND LANDFALL IFLAG USA_AGENCY USA_ATCF_ID USA_LAT USA_LON USA_RECORD USA_STATUS USA_WIND USA_PRES USA_SSHS USA_R34_NE USA_R34_SE USA_R34_SW USA_R34_NW USA_R50_NE USA_R50_SE USA_R50_SW USA_R50_NW USA_R64_NE USA_R64_SE USA_R64_SW USA_R64_NW USA_POCI USA_ROCI USA_RMW USA_EYE TOKYO_LAT TOKYO_LON TOKYO_GRADE TOKYO_WIND TOKYO_PRES TOKYO_R50_DIR TOKYO_R50_LONG TOKYO_R50_SHORT TOKYO_R30_DIR TOKYO_R30_LONG TOKYO_R30_SHORT TOKYO_LAND CMA_LAT CMA_LON CMA_CAT CMA_WIND CMA_PRES HKO_LAT HKO_LON HKO_CAT HKO_WIND HKO_PRES NEWDELHI_LAT NEWDELHI_LON NEWDELHI_GRADE NEWDELHI_WIND NEWDELHI_PRES NEWDELHI_CI NEWDELHI_DP NEWDELHI_POCI REUNION_LAT REUNION_LON REUNION_TYPE REUNION_WIND REUNION_PRES REUNION_TNUM REUNION_CI REUNION_RMW REUNION_R34_NE REUNION_R34_SE REUNION_R34_SW REUNION_R34_NW REUNION_R50_NE REUNION_R50_SE REUNION_R50_SW REUNION_R50_NW REUNION_R64_NE REUNION_R64_SE REUNION_R64_SW REUNION_R64_NW BOM_LAT BOM_LON BOM_TYPE BOM_WIND BOM_PRES BOM_TNUM BOM_CI BOM_RMW BOM_R34_NE BOM_R34_SE BOM_R34_SW BOM_R34_NW BOM_R50_NE BOM_R50_SE BOM_R50_SW BOM_R50_NW BOM_R64_NE BOM_R64_SE BOM_R64_SW BOM_R64_NW BOM_ROCI BOM_POCI BOM_EYE BOM_POS_METHOD BOM_PRES_METHOD NADI_LAT NADI_LON NADI_CAT NADI_WIND NADI_PRES WELLINGTON_LAT WELLINGTON_LON WELLINGTON_WIND WELLINGTON_PRES DS824_LAT DS824_LON DS824_STAGE DS824_WIND DS824_PRES TD9636_LAT TD9636_LON TD9636_STAGE TD9636_WIND TD9636_PRES TD9635_LAT TD9635_LON TD9635_WIND TD9635_PRES TD9635_ROCI NEUMANN_LAT NEUMANN_LON NEUMANN_CLASS NEUMANN_WIND NEUMANN_PRES MLC_LAT MLC_LON MLC_CLASS MLC_WIND MLC_PRES USA_GUST BOM_GUST BOM_GUST_PER REUNION_GUST REUNION_GUST_PER USA_SEAHGT USA_SEARAD_NE USA_SEARAD_SE USA_SEARAD_SW USA_SEARAD_NW STORM_SPEED STORM_DIR
1986130S15088 1986 47 SI MM LILA 1986-05-10 09:00:00 TS -15.4250 88.3405 spur-split 1925 1925 ______________ -1 13 210
1986130S15088 1986 47 SI MM LILA 1986-05-10 12:00:00 NR -16.0000 88.0000 spur-split 1998 1998 _____O________ -1 -16.0000 88.0000 99 36 9.90000 12 205
1986130S15088 1986 47 SI MM LILA 1986-05-10 15:00:00 NR -16.4999 87.8249 spur-split 2055 2055 _____P________ -1 -16.4976 87.8776 99 36 10 191
1986130S15088 1986 47 SI MM LILA 1986-05-10 18:00:00 NR -17.0000 87.8000 spur-split 2100 2100 _____O________ -1 -17.0000 87.8000 99 36 9.90000 10 0
1986130S15088 1986 47 SI MM LILA 1986-05-10 21:00:00 NR -17.5073 87.8177 spur-split 2145 2145 _____P________ -1 -17.5073 87.8177 99 36 10 169
1986130S15088 1986 47 SI MM LILA 1986-05-11 00:00:00 NR -18.0000 88.0000 spur-split 2179 2179 _____O________ -1 -18.0000 88.0000 99 36 9.90000 10 148
1986130S15088 1986 47 SI MM LILA 1986-05-11 03:00:00 NR -18.3751 88.3833 spur-split 2193 2187 _____P________ -1 -18.3751 88.3833 99 36 12 137
1986130S15088 1986 47 SI MM LILA 1986-05-11 06:00:00 NR -18.9000 88.9000 spur-split 2213 2213 _____O________ -1 -18.9000 88.9000 99 36 9.90000 17 149
1986130S15088 1986 47 SI MM LILA 1986-05-11 09:00:00 NR -19.8307 89.3097 spur-split 2250 2249 _____P________ -1 -19.8307 89.3097 99 36 23 153
1986130S15088 1986 47 SI WA LILA 1986-05-11 12:00:00 NR -20.9000 90.0000 spur-split 2273 2252 _____O________ -1 -20.9000 90.0000 99 36 9.90000 28 137
1986130S15088 1986 47 SI WA LILA 1986-05-11 15:00:00 NR -21.8472 91.3082 spur-split 2246 2115 _____P________ -1 -21.8472 91.3082 99 36 32 125
1986130S15088 1986 47 SI WA LILA 1986-05-11 18:00:00 NR -22.7000 92.8000 spur-split 2105 1978 _____O________ -1 -22.7000 92.8000 99 36 9.90000 29 123
1986130S15088 1986 47 SI WA LILA 1986-05-11 21:00:00 NR -23.3887 93.9105 spur-split 1978 1853 _____P________ -1 -23.3887 93.9105 99 36 25 124
1986130S15088 1986 47 SI WA LILA 1986-05-12 00:00:00 NR -24.1000 95.1000 spur-split 1843 1677 _____O________ -1 -24.1000 95.1000 99 36 9.90000 30 123
1986130S15088 1986 47 SI WA LILA 1986-05-12 03:00:00 NR -25.0429 96.7088 spur-split 1667 1486 _____P________ -1 -25.0429 96.7088 99 36 36 122
1986130S15088 1986 47 SI WA LILA 1986-05-12 06:00:00 NR -26.0000 98.5000 spur-split 1475 1302 _____O________ -1 -26.0000 98.5000 99 36 9.90000 37 119
1986130S15088 1986 47 SI WA LILA 1986-05-12 09:00:00 NR -26.8168 100.281 spur-split 1292 1136 _____P________ -1 -26.8168 100.281 99 36 35 116
1986130S15088 1986 47 SI WA LILA 1986-05-12 12:00:00 NR -27.5000 102.000 spur-split 1127 1006 _____O________ -1 -27.5000 102.000 99 36 9.90000 30 114
1986130S15088 1986 47 SI WA LILA 1986-05-12 15:00:00 NR -28.0660 103.391 spur-split 998 863 _____P________ -1 -28.0660 103.391 99 36 28 111
1986130S15088 1986 47 SI WA LILA 1986-05-12 18:00:00 NR -28.5000 105.000 spur-split 854 644 _____O________ -1 -28.5000 105.000 99 36 9.90000 37 102
1986130S15088 1986 47 SI WA LILA 1986-05-12 21:00:00 NR -28.8347 107.499 spur-split 635 431 _____P________ -1 -28.8347 107.499 99 36 44 97
1986130S15088 1986 47 SI WA LILA 1986-05-13 00:00:00 NR -29.0000 110.000 spur-split 421 263 _____O________ -1 -29.0000 110.000 99 36 9.90000 37 93
1986130S15088 1986 47 SI WA LILA 1986-05-13 03:00:00 NR -29.0315 111.750 spur-split 254 161 _____P________ -1 -29.0315 111.750 99 36 26 90
1986130S15088 1986 47 SI WA LILA 1986-05-13 06:00:00 NR -29.0000 113.000 spur-split 154 _____O________ -1 -29.0000 113.000 99 36 9.90000 22 88

IBTrACS Databaseについて

本データベースは、米国NOAAが公開する1842年以降の世界の熱帯低気圧のベストトラックデータアーカイブInternational Best Track Archive for Climate Stewardship (IBTrACS)を、ウェブで閲覧しやすい形式に変換したものです。

最終更新日:2021-11-26